.
WxDataArchive / Data Records for 2010-09-22
2010-09-21 September 2010 2010-09-23

Data Records for Wednesday, 22 September 2010

Time	Temp	Chill	HIndex	Humid	Dewpt	 Wind 	HiWind	WindDir	Rain 	Barom 
-----	----	-----	------	-----	-----	------	------	-------	-----	----- 
00:00	75.4	75.4	77.6	60	60.5	1	3	292	0.00	29.893 
00:05	75.3	75.3	77.5	61	60.9	0	2	292	0.00	29.893 
00:10	75.3	75.3	77.5	61	60.9	0	2	292	0.00	29.893 
00:15	75.1	75.1	77.4	61	60.7	0	1	292	0.00	29.876 
00:20	75.1	75.1	77.3	62	61.2	0	0	---	0.00	29.876 
00:25	74.9	74.9	74.9	62	61.0	0	0	---	0.00	29.876 
00:30	74.6	74.6	74.6	62	60.7	0	0	---	0.00	29.871 
00:35	74.4	74.4	74.4	62	60.5	0	0	---	0.00	29.871 
00:40	74.2	74.2	74.2	63	60.8	0	0	---	0.00	29.871 
00:45	73.9	73.9	73.9	64	60.9	0	0	---	0.00	29.868 
00:50	73.5	73.5	73.5	65	61.0	0	0	---	0.00	29.868 
00:55	73.2	73.2	73.2	65	60.7	0	0	---	0.00	29.868 
01:00	72.8	72.8	72.8	66	60.8	0	0	---	0.00	29.864 
01:05	72.3	72.3	72.3	67	60.7	0	0	---	0.00	29.864 
01:10	71.8	71.8	71.8	68	60.7	0	0	---	0.00	29.864 
01:15	71.5	71.5	71.5	69	60.8	0	0	---	0.00	29.873 
01:20	71.1	71.1	71.1	70	60.8	0	0	---	0.00	29.873 
01:25	70.9	70.9	70.9	71	61.0	0	0	---	0.00	29.873 
01:30	70.8	70.8	70.8	71	60.9	0	0	---	0.00	29.874 
01:35	70.4	70.4	70.4	72	60.9	0	0	---	0.00	29.874 
01:40	70.3	70.3	70.3	73	61.2	0	0	---	0.00	29.874 
01:45	70.1	70.1	70.1	73	61.0	0	0	---	0.00	29.867 
01:50	69.9	69.9	69.9	74	61.2	0	0	---	0.00	29.867 
01:55	69.8	69.8	69.8	75	61.5	0	0	---	0.00	29.867 
02:00	69.6	69.6	69.6	75	61.3	0	0	---	0.00	29.876 
02:05	69.4	69.4	69.4	75	61.1	0	0	---	0.00	29.876 
02:10	69.3	69.3	69.3	76	61.4	0	0	---	0.00	29.876 
02:15	69.3	69.3	69.3	76	61.4	0	0	---	0.00	29.878 
02:20	69.3	69.3	69.3	76	61.4	0	0	---	0.00	29.878 
02:25	69.3	69.3	69.3	77	61.8	0	0	---	0.00	29.878 
02:30	69.3	69.3	69.3	77	61.8	0	0	---	0.00	29.871 
02:35	69.1	69.1	69.1	77	61.6	0	0	---	0.00	29.871 
02:40	69.3	69.3	69.3	78	62.1	0	3	292	0.00	29.871 
02:45	69.4	69.4	69.4	82	63.7	4	11	270	0.09	29.908 
02:50	68.9	68.9	68.9	86	64.5	3	7	248	0.07	29.908 
02:55	68.8	68.8	68.8	86	64.4	2	6	315	0.03	29.908 
03:00	68.6	68.6	68.6	87	64.6	2	5	292	0.00	29.909 
03:05	68.4	68.4	68.4	87	64.4	1	3	315	0.00	29.909 
03:10	68.3	68.3	68.3	88	64.6	1	5	315	0.00	29.909 
03:15	68.3	68.3	68.3	87	64.3	0	2	315	0.00	29.912 
03:20	68.1	68.1	68.1	87	64.1	0	1	315	0.00	29.912 
03:25	68.1	68.1	68.1	88	64.4	0	1	315	0.00	29.912 
03:30	67.8	67.8	67.8	89	64.4	0	0	---	0.00	29.910 
03:35	67.6	67.6	67.6	89	64.2	0	1	315	0.00	29.910 
03:40	67.4	67.4	67.4	89	64.0	0	1	315	0.00	29.910 
03:45	67.3	67.3	67.3	90	64.3	0	0	---	0.00	29.909 
03:50	67.1	67.1	67.1	90	64.1	0	0	---	0.00	29.909 
03:55	67.1	67.1	67.1	90	64.1	0	0	---	0.00	29.909 
04:00	66.9	66.9	66.9	90	63.9	0	0	---	0.00	29.909 
04:05	66.8	66.8	66.8	91	64.1	0	0	---	0.00	29.909 
04:10	66.6	66.6	66.6	91	63.9	0	0	---	0.00	29.909 
04:15	66.4	66.4	66.4	92	64.0	0	0	---	0.00	29.910 
04:20	66.3	66.3	66.3	92	63.9	0	0	---	0.00	29.910 
04:25	66.1	66.1	66.1	92	63.7	0	0	---	0.00	29.910 
04:30	66.0	66.0	66.0	92	63.6	0	0	---	0.00	29.912 
04:35	66.0	66.0	66.0	92	63.6	0	0	---	0.00	29.912 
04:40	65.8	65.8	65.8	92	63.4	0	0	---	0.00	29.912 
04:45	65.8	65.8	65.8	93	63.7	0	0	---	0.00	29.914 
04:50	65.8	65.8	65.8	93	63.7	0	0	---	0.00	29.914 
04:55	66.0	66.0	66.0	93	63.9	0	0	---	0.00	29.914 
05:00	66.0	66.0	66.0	94	64.2	0	0	---	0.00	29.914 
05:05	66.1	66.1	66.1	94	64.3	0	0	---	0.00	29.914 
05:10	66.0	66.0	66.0	94	64.2	0	0	---	0.00	29.914 
05:15	66.0	66.0	66.0	94	64.2	0	1	315	0.00	29.928 
05:20	66.1	66.1	66.1	94	64.3	0	1	315	0.00	29.928 
05:25	66.1	66.1	66.1	94	64.3	0	1	315	0.00	29.928 
05:30	66.1	66.1	66.1	94	64.3	0	0	---	0.00	29.943 
05:35	66.1	66.1	66.1	94	64.3	0	0	---	0.00	29.943 
05:40	66.1	66.1	66.1	94	64.3	0	1	315	0.00	29.943 
05:45	66.1	66.1	66.1	94	64.3	0	1	315	0.00	29.941 
05:50	66.1	66.1	66.1	94	64.3	0	0	---	0.00	29.941 
05:55	66.0	66.0	66.0	94	64.2	0	0	---	0.00	29.941 
06:00	66.0	66.0	66.0	95	64.5	0	0	---	0.00	29.939 
06:05	66.0	66.0	66.0	95	64.5	0	1	315	0.00	29.939 
06:10	66.1	66.1	66.1	95	64.6	0	0	---	0.00	29.939 
06:15	66.1	66.1	66.1	95	64.6	0	0	---	0.00	29.941 
06:20	66.0	66.0	66.0	95	64.5	0	0	---	0.00	29.941 
06:25	66.0	66.0	66.0	95	64.5	0	0	---	0.00	29.941 
06:30	66.0	66.0	66.0	95	64.5	0	0	---	0.00	29.945 
06:35	66.1	66.1	66.1	95	64.6	0	2	315	0.00	29.945 
06:40	66.1	66.1	66.1	95	64.6	0	2	315	0.02	29.945 
06:45	66.3	66.3	66.3	95	64.8	0	1	315	0.05	29.948 
06:50	66.3	66.3	66.3	95	64.8	0	1	315	0.00	29.948 
06:55	66.1	66.1	66.1	95	64.6	0	2	315	0.04	29.948 
07:00	66.1	66.1	66.1	95	64.6	0	2	315	0.01	29.945 
07:05	66.1	66.1	66.1	95	64.6	0	0	---	0.00	29.945 
07:10	66.1	66.1	66.1	95	64.6	0	1	315	0.00	29.945 
07:15	66.0	66.0	66.0	95	64.5	0	1	315	0.00	29.953 
07:20	66.0	66.0	66.0	95	64.5	0	0	---	0.00	29.953 
07:25	66.0	66.0	66.0	95	64.5	0	1	315	0.00	29.953 
07:30	65.8	65.8	65.8	95	64.3	0	1	315	0.00	29.962 
07:35	65.8	65.8	65.8	95	64.3	0	0	---	0.00	29.962 
07:40	65.8	65.8	65.8	95	64.3	0	1	315	0.00	29.962 
07:45	65.8	65.8	65.8	95	64.3	0	1	315	0.00	29.967 
07:50	65.8	65.8	65.8	95	64.3	0	1	315	0.00	29.967 
07:55	65.8	65.8	65.8	95	64.3	0	0	---	0.00	29.967 
08:00	65.6	65.6	65.6	95	64.1	0	0	---	0.00	29.979 
08:05	65.6	65.6	65.6	95	64.1	0	0	---	0.00	29.979 
08:10	65.6	65.6	65.6	95	64.1	0	1	315	0.00	29.979 
08:15	65.6	65.6	65.6	95	64.1	0	1	315	0.00	29.985 
08:20	65.6	65.6	65.6	95	64.1	0	1	315	0.00	29.985 
08:25	65.6	65.6	65.6	96	64.4	0	1	315	0.00	29.985 
08:30	65.8	65.8	65.8	96	64.6	0	2	315	0.00	29.988 
08:35	66.0	66.0	66.0	96	64.8	0	1	315	0.00	29.988 
08:40	66.0	66.0	66.0	96	64.8	0	2	315	0.00	29.988 
08:45	66.0	66.0	66.0	96	64.8	0	1	315	0.00	29.993 
08:50	66.0	66.0	66.0	96	64.8	0	1	315	0.00	29.993 
08:55	66.1	66.1	66.1	96	64.9	0	2	315	0.00	29.993 
09:00	66.3	66.3	66.3	96	65.1	0	3	315	0.00	29.994 
09:05	66.6	66.6	66.6	96	65.4	0	2	315	0.00	29.994 
09:10	66.9	66.9	66.9	96	65.7	0	2	315	0.00	29.994 
09:15	67.3	67.3	67.3	96	66.1	0	1	248	0.00	29.992 
09:20	67.3	67.3	67.3	95	65.8	1	2	248	0.00	29.992 
09:25	67.4	67.4	67.4	95	65.9	1	3	248	0.00	29.992 
09:30	67.6	67.6	67.6	95	66.1	1	3	248	0.00	29.996 
09:35	67.8	67.8	67.8	95	66.3	1	3	248	0.00	29.996 
09:40	67.9	67.9	67.9	95	66.4	0	2	248	0.00	29.996 
09:45	68.1	68.1	68.1	94	66.3	1	3	292	0.00	30.004 
09:50	68.3	68.3	68.3	94	66.5	1	3	292	0.00	30.004 
09:55	68.4	68.4	68.4	93	66.3	2	4	292	0.00	30.004 
10:00	68.4	68.4	68.4	92	66.0	2	4	292	0.00	30.012 
10:05	68.8	68.8	68.8	91	66.1	1	4	292	0.00	30.012 
10:10	68.9	68.9	68.9	90	65.8	1	2	292	0.00	30.012 
10:15	69.1	69.1	69.1	90	66.0	0	2	292	0.00	30.014 
10:20	69.6	69.6	69.6	89	66.2	0	2	292	0.00	30.014 
10:25	69.6	69.6	69.6	88	65.9	1	4	292	0.00	30.014 
10:30	69.9	69.9	69.9	87	65.8	0	1	292	0.00	30.011 
10:35	69.8	69.8	69.8	84	64.7	1	3	292	0.00	30.011 
10:40	69.9	69.9	69.9	84	64.8	1	4	270	0.00	30.011 
10:45	70.4	70.4	70.4	84	65.3	1	4	270	0.00	30.021 
10:50	70.4	70.4	70.4	82	64.6	2	4	270	0.00	30.021 
10:55	70.3	70.3	70.3	82	64.5	2	4	270	0.00	30.021 
11:00	70.3	70.3	70.3	83	64.9	2	4	270	0.00	30.026 
11:05	70.3	70.3	70.3	83	64.9	1	6	270	0.00	30.026 
11:10	70.6	70.6	70.6	82	64.8	1	3	270	0.00	30.026 
11:15	70.8	70.8	70.8	81	64.7	1	3	315	0.00	30.026 
11:20	70.8	70.8	70.8	81	64.7	1	3	338	0.00	30.026 
11:25	71.1	71.1	71.1	81	65.0	1	3	338	0.00	30.026 
11:30	71.5	71.5	71.5	78	64.3	1	4	270	0.00	30.026 
11:35	72.0	72.0	72.0	79	65.1	1	4	270	0.00	30.026 
11:40	72.7	72.7	72.7	78	65.4	1	3	270	0.00	30.026 
11:45	73.3	73.3	73.3	77	65.6	1	3	270	0.00	30.025 
11:50	73.7	73.7	73.7	75	65.3	0	1	270	0.00	30.025 
11:55	74.0	74.0	74.0	75	65.6	0	1	270	0.00	30.025 
12:00	74.2	74.2	74.2	73	65.0	1	2	270	0.00	30.025 
12:05	74.2	74.2	74.2	72	64.6	0	2	270	0.00	30.025 
12:10	74.0	74.0	74.0	73	64.8	0	2	270	0.00	30.025 
12:15	74.0	74.0	74.0	71	64.0	1	3	270	0.00	30.035 
12:20	74.2	74.2	74.2	72	64.6	1	3	292	0.00	30.035 
12:25	74.6	74.6	74.6	73	65.4	0	2	292	0.00	30.035 
12:30	75.6	75.6	77.2	71	65.5	1	4	292	0.00	30.032 
12:35	76.0	76.0	77.7	69	65.1	1	2	292	0.00	30.032 
12:40	76.0	76.0	77.7	69	65.1	0	2	292	0.00	30.032 
12:45	76.0	76.0	77.7	69	65.1	0	1	292	0.00	30.031 
12:50	75.8	75.8	77.5	69	64.9	0	3	292	0.00	30.031 
12:55	76.0	76.0	77.7	69	65.1	0	1	292	0.00	30.031 
13:00	76.1	76.1	77.8	68	64.8	1	2	292	0.00	30.039 
13:05	76.0	76.0	77.7	69	65.1	0	2	292	0.00	30.039 
13:10	75.8	75.8	77.5	69	64.9	0	2	292	0.00	30.039 
13:15	76.0	76.0	77.7	69	65.1	0	1	292	0.00	30.039 
13:20	76.0	76.0	77.7	68	64.7	0	1	292	0.00	30.039 
13:25	76.0	76.0	77.7	69	65.1	0	1	292	0.00	30.039 
13:30	76.0	76.0	77.7	68	64.7	0	2	292	0.00	30.043 
13:35	76.0	76.0	77.7	68	64.7	1	3	292	0.00	30.043 
13:40	76.0	76.0	77.8	67	64.2	0	1	292	0.00	30.043 
13:45	76.0	76.0	77.7	68	64.7	0	1	292	0.00	30.045 
13:50	76.0	76.0	77.8	67	64.2	0	2	292	0.00	30.045 
13:55	76.0	76.0	77.8	67	64.2	0	3	292	0.00	30.045 
14:00	76.0	76.0	77.8	67	64.2	0	2	292	0.00	30.047 
14:05	75.8	75.8	77.6	67	64.0	0	3	292	0.00	30.047 
14:10	75.8	75.8	77.6	67	64.0	0	1	292	0.00	30.047 
14:15	75.8	75.8	77.6	68	64.5	0	1	292	0.00	30.045 
14:20	76.0	76.0	77.8	66	63.8	0	2	292	0.00	30.045 
14:25	76.0	76.0	77.8	66	63.8	0	3	292	0.00	30.045 
14:30	75.8	75.8	77.6	67	64.0	1	3	292	0.00	30.059 
14:35	75.8	75.8	77.6	68	64.5	0	3	292	0.00	30.059 
14:40	75.4	75.4	77.1	69	64.5	0	2	292	0.00	30.059 
14:45	75.3	75.3	77.0	70	64.8	0	1	292	0.00	30.062 
14:50	75.1	75.1	76.8	70	64.6	0	2	292	0.00	30.062 
14:55	74.9	74.9	74.9	71	64.8	0	4	270	0.00	30.062 
15:00	74.9	74.9	74.9	71	64.8	0	1	270	0.00	30.050 
15:05	74.9	74.9	74.9	72	65.2	0	2	270	0.00	30.050 
15:10	74.9	74.9	74.9	72	65.2	0	2	270	0.00	30.050 
15:15	74.9	74.9	74.9	73	65.6	0	2	270	0.00	30.052 
15:20	74.9	74.9	74.9	73	65.6	1	3	270	0.00	30.052 
15:25	74.7	74.7	74.7	73	65.5	0	3	270	0.00	30.052 
15:30	74.6	74.6	74.6	73	65.4	0	2	270	0.00	30.046 
15:35	74.6	74.6	74.6	72	65.0	1	3	270	0.00	30.046 
15:40	74.6	74.6	74.6	72	65.0	1	3	270	0.00	30.046 
15:45	74.7	74.7	74.7	72	65.1	0	1	270	0.00	30.034 
15:50	74.9	74.9	74.9	71	64.8	1	3	270	0.00	30.034 
15:55	74.9	74.9	74.9	70	64.4	1	3	270	0.00	30.034 
16:00	74.9	74.9	74.9	70	64.4	1	3	270	0.00	30.030 
16:05	74.9	74.9	74.9	70	64.4	1	3	270	0.00	30.030 
16:10	75.1	75.1	76.8	70	64.6	0	1	270	0.00	30.030 
16:15	75.1	75.1	76.8	70	64.6	0	1	270	0.00	30.028 
16:20	75.3	75.3	77.0	69	64.4	0	1	270	0.00	30.028 
16:25	75.3	75.3	77.0	69	64.4	0	1	270	0.00	30.028 
16:30	75.3	75.3	77.0	69	64.4	0	2	270	0.00	30.022 
16:35	75.3	75.3	77.0	69	64.4	0	1	270	0.00	30.022 
16:40	75.3	75.3	77.0	69	64.4	0	1	270	0.00	30.022 
16:45	75.8	75.8	77.4	71	65.7	0	1	270	0.00	30.022 
16:50	76.1	76.1	77.8	69	65.2	0	3	270	0.00	30.022 
16:55	76.3	76.3	78.1	66	64.1	0	2	270	0.00	30.022 
17:00	76.5	76.5	78.3	66	64.3	0	2	270	0.00	30.018 
17:05	76.7	76.7	78.5	65	64.0	0	1	270	0.00	30.018 
17:10	76.7	76.7	78.5	66	64.5	0	2	270	0.00	30.018 
17:15	76.8	76.8	78.6	65	64.1	1	2	270	0.00	30.025 
17:20	77.0	77.0	78.8	65	64.3	0	1	270	0.00	30.025 
17:25	76.8	76.8	78.6	64	63.7	0	1	270	0.00	30.025 
17:30	76.7	76.7	78.5	65	64.0	0	1	270	0.00	30.023 
17:35	76.8	76.8	78.6	66	64.6	0	1	270	0.00	30.023 
17:40	76.8	76.8	78.6	65	64.1	0	1	270	0.00	30.023 
17:45	76.8	76.8	78.6	63	63.2	0	1	270	0.00	30.020 
17:50	76.8	76.8	78.6	65	64.1	0	1	270	0.00	30.020 
17:55	76.8	76.8	78.6	64	63.7	0	1	270	0.00	30.020 
18:00	76.7	76.7	78.5	64	63.6	0	0	---	0.00	30.021 
18:05	76.7	76.7	78.5	65	64.0	0	0	---	0.00	30.021 
18:10	76.5	76.5	78.3	65	63.8	0	0	---	0.00	30.021 
18:15	76.5	76.5	78.3	65	63.8	0	0	---	0.00	30.030 
18:20	76.3	76.3	78.1	65	63.6	0	0	---	0.00	30.030 
18:25	76.3	76.3	78.1	65	63.6	0	1	270	0.00	30.030 
18:30	76.3	76.3	78.1	65	63.6	0	0	---	0.00	30.031 
18:35	76.3	76.3	78.1	66	64.1	0	0	---	0.00	30.031 
18:40	76.3	76.3	78.1	66	64.1	0	1	270	0.00	30.031 
18:45	76.1	76.1	77.9	67	64.3	0	0	---	0.00	30.046 
18:50	76.1	76.1	77.9	67	64.3	0	0	---	0.00	30.046 
18:55	76.0	76.0	77.7	68	64.7	0	0	---	0.00	30.046 
19:00	76.0	76.0	77.7	69	65.1	0	0	---	0.00	30.045 
19:05	75.8	75.8	77.5	69	64.9	0	1	270	0.00	30.045 
19:10	75.6	75.6	77.3	69	64.7	0	1	270	0.00	30.045 
19:15	75.6	75.6	77.3	69	64.7	0	0	---	0.00	30.046 
19:20	75.4	75.4	77.1	69	64.5	0	0	---	0.00	30.046 
19:25	75.3	75.3	77.0	70	64.8	0	0	---	0.00	30.046 
19:30	75.1	75.1	76.8	70	64.6	0	0	---	0.00	30.048 
19:35	74.7	74.7	74.7	70	64.2	0	0	---	0.00	30.048 
19:40	74.6	74.6	74.6	71	64.6	0	0	---	0.00	30.048 
19:45	74.4	74.4	74.4	70	64.0	0	0	---	0.00	30.048 
19:50	74.0	74.0	74.0	70	63.6	0	0	---	0.00	30.048 
19:55	73.9	73.9	73.9	70	63.5	0	0	---	0.00	30.048 
20:00	73.5	73.5	73.5	71	63.5	0	0	---	0.00	30.052 
20:05	73.2	73.2	73.2	71	63.2	0	0	---	0.00	30.052 
20:10	73.0	73.0	73.0	72	63.4	0	0	---	0.00	30.052 
20:15	72.7	72.7	72.7	73	63.5	0	0	---	0.00	30.056 
20:20	72.3	72.3	72.3	75	63.9	0	0	---	0.00	30.056 
20:25	72.1	72.1	72.1	75	63.7	0	0	---	0.00	30.056 
20:30	72.1	72.1	72.1	74	63.3	0	0	---	0.00	30.064 
20:35	72.0	72.0	72.0	74	63.2	0	0	---	0.00	30.064 
20:40	72.0	72.0	72.0	75	63.6	0	0	---	0.00	30.064 
20:45	71.8	71.8	71.8	75	63.4	0	0	---	0.00	30.066 
20:50	71.6	71.6	71.6	75	63.2	0	0	---	0.00	30.066 
20:55	71.5	71.5	71.5	76	63.5	0	0	---	0.00	30.066 
21:00	71.1	71.1	71.1	77	63.5	0	0	---	0.00	30.067 
21:05	70.8	70.8	70.8	78	63.6	0	0	---	0.00	30.067 
21:10	70.4	70.4	70.4	79	63.6	0	0	---	0.00	30.067 
21:15	70.1	70.1	70.1	80	63.6	0	0	---	0.00	30.054 
21:20	69.8	69.8	69.8	81	63.7	0	0	---	0.00	30.054 
21:25	69.4	69.4	69.4	82	63.7	0	0	---	0.00	30.054 
21:30	69.1	69.1	69.1	82	63.4	0	0	---	0.00	30.060 
21:35	68.8	68.8	68.8	83	63.4	0	0	---	0.00	30.060 
21:40	68.6	68.6	68.6	83	63.2	0	0	---	0.00	30.060 
21:45	68.3	68.3	68.3	84	63.3	0	0	---	0.00	30.053 
21:50	68.1	68.1	68.1	85	63.4	0	0	---	0.00	30.053 
21:55	67.9	67.9	67.9	86	63.5	0	0	---	0.00	30.053 
22:00	67.9	67.9	67.9	86	63.5	0	0	---	0.00	30.073 
22:05	67.8	67.8	67.8	86	63.5	0	0	---	0.00	30.073 
22:10	67.6	67.6	67.6	87	63.6	0	0	---	0.00	30.073 
22:15	67.4	67.4	67.4	87	63.4	0	0	---	0.00	30.083 
22:20	67.3	67.3	67.3	87	63.3	0	0	---	0.00	30.083 
22:25	67.1	67.1	67.1	87	63.1	0	0	---	0.00	30.083 
22:30	66.8	66.8	66.8	88	63.1	0	0	---	0.00	30.080 
22:35	66.6	66.6	66.6	88	62.9	0	0	---	0.00	30.080 
22:40	66.4	66.4	66.4	89	63.1	0	0	---	0.00	30.080 
22:45	66.3	66.3	66.3	89	63.0	0	0	---	0.00	30.084 
22:50	66.3	66.3	66.3	89	63.0	0	0	---	0.00	30.084 
22:55	66.1	66.1	66.1	89	62.8	0	0	---	0.00	30.084 
23:00	66.0	66.0	66.0	90	63.0	0	0	---	0.00	30.084 
23:05	65.8	65.8	65.8	90	62.8	0	0	---	0.00	30.084 
23:10	65.6	65.6	65.6	91	62.9	0	0	---	0.00	30.084 
23:15	65.6	65.6	65.6	91	62.9	0	0	---	0.00	30.074 
23:20	65.5	65.5	65.5	91	62.8	0	0	---	0.00	30.074 
23:25	65.3	65.3	65.3	91	62.6	0	0	---	0.00	30.074 
23:30	65.2	65.2	65.2	91	62.5	0	0	---	0.00	30.071 
23:35	65.2	65.2	65.2	92	62.8	0	0	---	0.00	30.071 
23:40	65.0	65.0	65.0	92	62.6	0	0	---	0.00	30.071 
23:45	65.0	65.0	65.0	92	62.6	0	0	---	0.00	30.072 
23:50	64.8	64.8	64.8	92	62.4	0	0	---	0.00	30.072 
23:55	64.8	64.8	64.8	92	62.4	0	0	---	0.00	30.072 

CoCoRaHS
IN-AL-39
A2 Web Hosting
Creative Commons License
GoDaddy
search engine by freefind advanced

loaded 2018-11-15 18:06:47 • last modified 2010-11-18 10:43:29
Privacy PolicyDisclaimer
• wx.awcolley.com is powered by PmWiki v.2002016 •
• all content (unless otherwise noted) © 2018 A W Colley